sensor_id;sensor_type;location;lat;lon;timestamp;pressure;altitude;pressure_sealevel;temperature;humidity
75759;BME280;64371;47.566;19.086;2023-05-07T10:42:14;100527.47;;;22.23;48.22
75759;BME280;64371;47.566;19.086;2023-05-07T10:45:25;100521.91;;;21.81;50.00
75759;BME280;64371;47.566;19.086;2023-05-07T10:48:29;100531.13;;;22.15;49.54
75759;BME280;64371;47.566;19.086;2023-05-07T10:51:38;100532.06;;;22.22;50.92
75759;BME280;64371;47.566;19.086;2023-05-07T10:58:38;100524.16;;;22.29;49.97
75759;BME280;64371;47.566;19.086;2023-05-07T11:01:55;100519.22;;;22.89;48.21
75759;BME280;64371;47.566;19.086;2023-05-07T11:05:21;100517.44;;;23.42;46.12
75759;BME280;64371;47.566;19.086;2023-05-07T11:08:58;100520.22;;;24.27;44.34
75759;BME280;64371;47.566;19.086;2023-05-07T11:12:10;100494.97;;;24.09;43.65
75759;BME280;64371;47.566;19.086;2023-05-07T11:15:46;100520.38;;;23.59;44.19
75759;BME280;64371;47.566;19.086;2023-05-07T11:19:12;100504.34;;;23.93;44.37
75759;BME280;64371;47.566;19.086;2023-05-07T11:26:07;100513.88;;;23.60;44.76
75759;BME280;64371;47.566;19.086;2023-05-07T11:29:15;100509.00;;;24.55;41.06
75759;BME280;64371;47.566;19.086;2023-05-07T11:32:29;100508.16;;;24.18;42.74
75759;BME280;64371;47.566;19.086;2023-05-07T11:35:36;100497.97;;;24.71;42.30
75759;BME280;64371;47.566;19.086;2023-05-07T11:38:42;100509.38;;;24.54;42.00
75759;BME280;64371;47.566;19.086;2023-05-07T11:41:44;100491.34;;;24.98;41.44
75759;BME280;64371;47.566;19.086;2023-05-07T11:44:46;100486.28;;;25.37;39.84
75759;BME280;64371;47.566;19.086;2023-05-07T11:47:50;100498.78;;;26.20;37.93
75759;BME280;64371;47.566;19.086;2023-05-07T11:51:03;100492.41;;;25.30;39.22
75759;BME280;64371;47.566;19.086;2023-05-07T11:54:05;100503.94;;;25.27;38.31
75759;BME280;64371;47.566;19.086;2023-05-07T11:57:14;100497.72;;;25.70;37.53
75759;BME280;64371;47.566;19.086;2023-05-07T12:00:17;100485.44;;;25.29;37.76
75759;BME280;64371;47.566;19.086;2023-05-07T12:03:20;100493.09;;;25.20;37.79
75759;BME280;64371;47.566;19.086;2023-05-07T12:06:25;100498.16;;;25.25;37.96
75759;BME280;64371;47.566;19.086;2023-05-07T12:09:28;100481.34;;;24.98;38.62
75759;BME280;64371;47.566;19.086;2023-05-07T12:12:30;100470.44;;;24.18;39.77
75759;BME280;64371;47.566;19.086;2023-05-07T12:15:35;100476.09;;;25.16;36.68
75759;BME280;64371;47.566;19.086;2023-05-07T12:18:37;100493.91;;;25.82;36.81
75759;BME280;64371;47.566;19.086;2023-05-07T12:21:40;100476.59;;;24.85;38.88
75759;BME280;64371;47.566;19.086;2023-05-07T12:24:47;100487.78;;;25.31;39.26
75759;BME280;64371;47.566;19.086;2023-05-07T12:27:53;100480.28;;;25.10;40.01
75759;BME280;64371;47.566;19.086;2023-05-07T12:30:55;100474.25;;;24.13;42.13
75759;BME280;64371;47.566;19.086;2023-05-07T12:33:58;100479.91;;;23.78;43.47
75759;BME280;64371;47.566;19.086;2023-05-07T12:37:03;100476.09;;;23.31;41.62
75759;BME280;64371;47.566;19.086;2023-05-07T12:40:08;100474.56;;;24.08;40.90
75759;BME280;64371;47.566;19.086;2023-05-07T12:43:24;100479.88;;;24.71;39.06
75759;BME280;64371;47.566;19.086;2023-05-07T12:46:27;100477.75;;;24.84;38.36
75759;BME280;64371;47.566;19.086;2023-05-07T12:49:34;100481.69;;;24.93;37.97
75759;BME280;64371;47.566;19.086;2023-05-07T12:52:39;100479.09;;;25.04;38.05
75759;BME280;64371;47.566;19.086;2023-05-07T12:55:46;100481.84;;;25.15;38.76
75759;BME280;64371;47.566;19.086;2023-05-07T12:58:48;100460.97;;;24.01;40.07
75759;BME280;64371;47.566;19.086;2023-05-07T13:01:51;100467.72;;;24.84;38.22
75759;BME280;64371;47.566;19.086;2023-05-07T13:04:55;100460.84;;;25.38;36.01
75759;BME280;64371;47.566;19.086;2023-05-07T13:07:58;100462.50;;;24.28;39.32
75759;BME280;64371;47.566;19.086;2023-05-07T13:11:02;100460.16;;;24.60;39.23
75759;BME280;64371;47.566;19.086;2023-05-07T13:14:08;100431.75;;;24.03;40.28
75759;BME280;64371;47.566;19.086;2023-05-07T13:17:12;100446.97;;;24.15;39.11
75759;BME280;64371;47.566;19.086;2023-05-07T13:20:15;100462.63;;;24.39;37.74
75759;BME280;64371;47.566;19.086;2023-05-07T13:23:17;100448.72;;;24.37;37.70
75759;BME280;64371;47.566;19.086;2023-05-07T13:26:20;100431.69;;;24.29;38.36
75759;BME280;64371;47.566;19.086;2023-05-07T13:29:30;100421.63;;;24.60;37.49
75759;BME280;64371;47.566;19.086;2023-05-07T13:32:34;100454.97;;;24.81;37.69
75759;BME280;64371;47.566;19.086;2023-05-07T13:35:36;100435.44;;;24.55;38.46
75759;BME280;64371;47.566;19.086;2023-05-07T13:38:42;100447.59;;;24.75;38.19
75759;BME280;64371;47.566;19.086;2023-05-07T13:41:44;100442.50;;;25.07;37.08
75759;BME280;64371;47.566;19.086;2023-05-07T13:44:46;100439.91;;;24.40;37.74
75759;BME280;64371;47.566;19.086;2023-05-07T13:47:49;100434.53;;;24.80;36.90
75759;BME280;64371;47.566;19.086;2023-05-07T13:50:51;100432.22;;;24.79;35.66
75759;BME280;64371;47.566;19.086;2023-05-07T13:53:54;100431.63;;;24.22;38.32
75759;BME280;64371;47.566;19.086;2023-05-07T13:56:58;100441.63;;;24.59;37.88
75759;BME280;64371;47.566;19.086;2023-05-07T14:00:04;100432.19;;;24.75;38.23
75759;BME280;64371;47.566;19.086;2023-05-07T14:03:15;100421.19;;;23.88;39.65
75759;BME280;64371;47.566;19.086;2023-05-07T14:06:19;100429.72;;;24.60;38.21
75759;BME280;64371;47.566;19.086;2023-05-07T14:09:21;100418.66;;;24.72;37.27
75759;BME280;64371;47.566;19.086;2023-05-07T14:12:24;100430.25;;;24.76;37.42
75759;BME280;64371;47.566;19.086;2023-05-07T14:15:27;100433.91;;;24.54;37.49
75759;BME280;64371;47.566;19.086;2023-05-07T14:18:29;100426.03;;;24.38;38.09
75759;BME280;64371;47.566;19.086;2023-05-07T14:21:31;100421.44;;;24.42;37.85
75759;BME280;64371;47.566;19.086;2023-05-07T14:24:34;100419.31;;;24.21;37.90
75759;BME280;64371;47.566;19.086;2023-05-07T14:27:40;100433.19;;;23.94;38.26
75759;BME280;64371;47.566;19.086;2023-05-07T14:30:42;100434.69;;;23.91;38.09
75759;BME280;64371;47.566;19.086;2023-05-07T14:33:46;100430.50;;;23.94;37.79
75759;BME280;64371;47.566;19.086;2023-05-07T14:36:49;100430.91;;;23.66;38.88
75759;BME280;64371;47.566;19.086;2023-05-07T14:39:51;100432.50;;;23.70;39.49
75759;BME280;64371;47.566;19.086;2023-05-07T14:42:53;100433.22;;;23.67;40.01
75759;BME280;64371;47.566;19.086;2023-05-07T14:45:56;100428.06;;;23.55;40.50
75759;BME280;64371;47.566;19.086;2023-05-07T14:48:58;100450.88;;;23.39;40.58
75759;BME280;64371;47.566;19.086;2023-05-07T14:52:00;100438.03;;;23.06;41.05
75759;BME280;64371;47.566;19.086;2023-05-07T14:55:03;100454.91;;;23.03;41.38
75759;BME280;64371;47.566;19.086;2023-05-07T14:58:06;100459.16;;;22.81;41.46
75759;BME280;64371;47.566;19.086;2023-05-07T15:01:08;100443.91;;;22.66;41.61
75759;BME280;64371;47.566;19.086;2023-05-07T15:04:11;100449.81;;;22.75;41.95
75759;BME280;64371;47.566;19.086;2023-05-07T15:07:17;100443.63;;;22.71;41.87
75759;BME280;64371;47.566;19.086;2023-05-07T15:10:19;100431.19;;;22.44;42.89
75759;BME280;64371;47.566;19.086;2023-05-07T15:13:22;100450.78;;;22.64;42.90
75759;BME280;64371;47.566;19.086;2023-05-07T15:16:24;100455.22;;;22.56;43.13
75759;BME280;64371;47.566;19.086;2023-05-07T15:19:27;100442.34;;;22.46;43.62
75759;BME280;64371;47.566;19.086;2023-05-07T15:22:31;100465.03;;;22.48;43.54
75759;BME280;64371;47.566;19.086;2023-05-07T15:25:33;100452.81;;;22.32;43.44
75759;BME280;64371;47.566;19.086;2023-05-07T15:28:36;100452.75;;;22.09;43.89
75759;BME280;64371;47.566;19.086;2023-05-07T15:31:38;100455.78;;;22.08;44.00
75759;BME280;64371;47.566;19.086;2023-05-07T15:34:41;100452.31;;;22.26;43.70
75759;BME280;64371;47.566;19.086;2023-05-07T15:37:48;100446.47;;;22.21;43.51
75759;BME280;64371;47.566;19.086;2023-05-07T15:40:52;100453.06;;;22.23;43.34
75759;BME280;64371;47.566;19.086;2023-05-07T15:43:55;100453.91;;;22.08;43.18
75759;BME280;64371;47.566;19.086;2023-05-07T15:46:59;100453.94;;;21.93;43.06
75759;BME280;64371;47.566;19.086;2023-05-07T15:50:01;100455.84;;;21.92;42.56
75759;BME280;64371;47.566;19.086;2023-05-07T15:53:04;100453.47;;;21.87;42.57
75759;BME280;64371;47.566;19.086;2023-05-07T15:56:06;100436.63;;;21.90;42.55
75759;BME280;64371;47.566;19.086;2023-05-07T15:59:09;100436.41;;;21.79;41.73
75759;BME280;64371;47.566;19.086;2023-05-07T16:02:16;100432.78;;;21.72;42.12
75759;BME280;64371;47.566;19.086;2023-05-07T16:05:19;100434.44;;;21.61;41.60
75759;BME280;64371;47.566;19.086;2023-05-07T16:08:21;100456.25;;;21.59;41.84
75759;BME280;64371;47.566;19.086;2023-05-07T16:11:23;100432.84;;;21.41;41.96
75759;BME280;64371;47.566;19.086;2023-05-07T16:14:26;100456.88;;;21.53;42.10
75759;BME280;64371;47.566;19.086;2023-05-07T16:17:28;100445.38;;;21.37;42.41
75759;BME280;64371;47.566;19.086;2023-05-07T16:20:31;100454.75;;;21.27;42.68
75759;BME280;64371;47.566;19.086;2023-05-07T16:23:33;100451.22;;;21.23;42.58
75759;BME280;64371;47.566;19.086;2023-05-07T16:26:35;100441.84;;;21.01;42.69
75759;BME280;64371;47.566;19.086;2023-05-07T16:29:38;100446.84;;;21.03;42.42
75759;BME280;64371;47.566;19.086;2023-05-07T16:32:41;100446.13;;;20.90;42.49
75759;BME280;64371;47.566;19.086;2023-05-07T16:35:43;100440.19;;;20.81;42.49
75759;BME280;64371;47.566;19.086;2023-05-07T16:38:48;100438.59;;;20.65;42.80
75759;BME280;64371;47.566;19.086;2023-05-07T16:41:51;100447.78;;;20.64;42.93
75759;BME280;64371;47.566;19.086;2023-05-07T16:44:53;100443.94;;;20.49;43.37
75759;BME280;64371;47.566;19.086;2023-05-07T16:47:55;100439.50;;;20.41;43.69
75759;BME280;64371;47.566;19.086;2023-05-07T16:50:59;100450.13;;;20.37;44.03
75759;BME280;64371;47.566;19.086;2023-05-07T16:54:02;100438.44;;;20.18;44.33
75759;BME280;64371;47.566;19.086;2023-05-07T16:57:04;100435.34;;;20.16;44.65
75759;BME280;64371;47.566;19.086;2023-05-07T17:00:07;100442.72;;;20.07;44.72
75759;BME280;64371;47.566;19.086;2023-05-07T17:03:10;100451.53;;;20.07;44.77
75759;BME280;64371;47.566;19.086;2023-05-07T17:06:13;100457.81;;;19.99;45.16
75759;BME280;64371;47.566;19.086;2023-05-07T17:09:16;100455.16;;;19.87;45.42
75759;BME280;64371;47.566;19.086;2023-05-07T17:12:18;100460.31;;;19.80;45.67
75759;BME280;64371;47.566;19.086;2023-05-07T17:15:20;100458.53;;;19.60;46.31
75759;BME280;64371;47.566;19.086;2023-05-07T17:18:23;100471.16;;;19.47;47.39
75759;BME280;64371;47.566;19.086;2023-05-07T17:21:25;100475.72;;;19.47;47.23
75759;BME280;64371;47.566;19.086;2023-05-07T17:24:28;100477.91;;;19.33;47.03
75759;BME280;64371;47.566;19.086;2023-05-07T17:27:31;100468.75;;;19.09;47.39
75759;BME280;64371;47.566;19.086;2023-05-07T17:30:37;100480.41;;;18.93;47.67
75759;BME280;64371;47.566;19.086;2023-05-07T17:33:39;100476.72;;;18.85;47.68
75759;BME280;64371;47.566;19.086;2023-05-07T17:36:41;100474.75;;;18.62;48.05
75759;BME280;64371;47.566;19.086;2023-05-07T17:39:44;100489.09;;;18.57;49.07
75759;BME280;64371;47.566;19.086;2023-05-07T17:42:47;100481.16;;;18.48;49.02
75759;BME280;64371;47.566;19.086;2023-05-07T17:45:50;100492.78;;;18.44;48.98
75759;BME280;64371;47.566;19.086;2023-05-07T17:48:52;100496.91;;;18.21;48.91
75759;BME280;64371;47.566;19.086;2023-05-07T17:51:54;100493.72;;;18.07;49.64
75759;BME280;64371;47.566;19.086;2023-05-07T17:54:57;100481.94;;;17.87;49.79
75759;BME280;64371;47.566;19.086;2023-05-07T17:57:59;100523.34;;;17.84;50.16
75759;BME280;64371;47.566;19.086;2023-05-07T18:01:04;100511.38;;;17.61;50.74
75759;BME280;64371;47.566;19.086;2023-05-07T18:04:07;100521.47;;;17.56;50.89
75759;BME280;64371;47.566;19.086;2023-05-07T18:07:09;100521.34;;;17.35;51.42
75759;BME280;64371;47.566;19.086;2023-05-07T18:10:12;100518.41;;;17.28;51.98
75759;BME280;64371;47.566;19.086;2023-05-07T18:13:15;100522.41;;;17.05;52.49
75759;BME280;64371;47.566;19.086;2023-05-07T18:16:17;100536.00;;;17.03;52.73
75759;BME280;64371;47.566;19.086;2023-05-07T18:19:21;100538.06;;;16.89;53.74
75759;BME280;64371;47.566;19.086;2023-05-07T18:22:23;100542.94;;;16.87;53.59
75759;BME280;64371;47.566;19.086;2023-05-07T18:25:25;100543.28;;;16.69;53.94
75759;BME280;64371;47.566;19.086;2023-05-07T18:28:28;100543.44;;;16.64;54.06
75759;BME280;64371;47.566;19.086;2023-05-07T18:31:30;100544.34;;;16.50;54.62
75759;BME280;64371;47.566;19.086;2023-05-07T18:34:32;100558.72;;;16.49;55.10
75759;BME280;64371;47.566;19.086;2023-05-07T18:37:35;100559.25;;;16.51;54.27
75759;BME280;64371;47.566;19.086;2023-05-07T18:40:37;100551.06;;;16.48;53.67
75759;BME280;64371;47.566;19.086;2023-05-07T18:43:47;100570.81;;;16.47;53.86
75759;BME280;64371;47.566;19.086;2023-05-07T18:46:50;100586.44;;;16.48;53.96
75759;BME280;64371;47.566;19.086;2023-05-07T18:49:52;100595.19;;;16.40;53.97
75759;BME280;64371;47.566;19.086;2023-05-07T18:52:55;100609.44;;;16.36;54.98
75759;BME280;64371;47.566;19.086;2023-05-07T18:55:57;100627.28;;;16.35;55.34
75759;BME280;64371;47.566;19.086;2023-05-07T18:59:01;100625.06;;;16.29;55.20
75759;BME280;64371;47.566;19.086;2023-05-07T19:02:03;100631.31;;;16.24;56.07
75759;BME280;64371;47.566;19.086;2023-05-07T19:05:06;100637.13;;;16.26;60.52
75759;BME280;64371;47.566;19.086;2023-05-07T19:08:08;100627.88;;;15.76;65.07
75759;BME280;64371;47.566;19.086;2023-05-07T19:11:11;100653.88;;;15.57;69.02
75759;BME280;64371;47.566;19.086;2023-05-07T19:14:13;100648.00;;;15.24;70.47
75759;BME280;64371;47.566;19.086;2023-05-07T19:17:17;100668.72;;;15.13;71.29
75759;BME280;64371;47.566;19.086;2023-05-07T19:20:20;100681.88;;;15.18;71.41
75759;BME280;64371;47.566;19.086;2023-05-07T19:23:22;100689.88;;;15.05;71.19
75759;BME280;64371;47.566;19.086;2023-05-07T19:26:24;100694.16;;;14.79;71.02
75759;BME280;64371;47.566;19.086;2023-05-07T19:29:27;100712.38;;;14.44;71.21
75759;BME280;64371;47.566;19.086;2023-05-07T19:32:29;100717.28;;;14.37;69.19
75759;BME280;64371;47.566;19.086;2023-05-07T19:35:32;100710.47;;;14.18;68.43
75759;BME280;64371;47.566;19.086;2023-05-07T19:38:36;100726.28;;;14.09;68.24
75759;BME280;64371;47.566;19.086;2023-05-07T19:41:38;100714.25;;;13.98;67.37
75759;BME280;64371;47.566;19.086;2023-05-07T19:44:42;100738.53;;;14.05;67.26
75759;BME280;64371;47.566;19.086;2023-05-07T19:47:46;100733.81;;;14.02;65.78
75759;BME280;64371;47.566;19.086;2023-05-07T19:50:50;100742.81;;;13.87;66.30
75759;BME280;64371;47.566;19.086;2023-05-07T19:53:52;100736.94;;;13.58;65.71
75759;BME280;64371;47.566;19.086;2023-05-07T19:56:55;100740.50;;;13.67;64.50
75759;BME280;64371;47.566;19.086;2023-05-07T19:59:57;100755.53;;;13.72;64.00
75759;BME280;64371;47.566;19.086;2023-05-07T20:03:00;100748.09;;;13.55;64.16
75759;BME280;64371;47.566;19.086;2023-05-07T20:06:02;100764.66;;;13.28;65.04
75759;BME280;64371;47.566;19.086;2023-05-07T20:09:05;100761.50;;;13.26;64.93
75759;BME280;64371;47.566;19.086;2023-05-07T20:12:11;100764.09;;;13.32;65.52
75759;BME280;64371;47.566;19.086;2023-05-07T20:15:13;100759.06;;;13.30;65.42
75759;BME280;64371;47.566;19.086;2023-05-07T20:18:15;100761.06;;;13.19;64.83
75759;BME280;64371;47.566;19.086;2023-05-07T20:21:18;100773.09;;;13.30;65.16
75759;BME280;64371;47.566;19.086;2023-05-07T20:24:20;100775.38;;;13.18;64.78
75759;BME280;64371;47.566;19.086;2023-05-07T20:27:23;100773.19;;;13.02;65.16
75759;BME280;64371;47.566;19.086;2023-05-07T20:30:29;100799.25;;;13.13;65.70
75759;BME280;64371;47.566;19.086;2023-05-07T20:33:32;100801.84;;;13.37;64.02
75759;BME280;64371;47.566;19.086;2023-05-07T20:36:37;100794.69;;;13.38;63.04
75759;BME280;64371;47.566;19.086;2023-05-07T20:39:40;100800.84;;;13.52;61.50
75759;BME280;64371;47.566;19.086;2023-05-07T20:42:43;100803.22;;;13.35;61.21
75759;BME280;64371;47.566;19.086;2023-05-07T20:45:45;100790.75;;;12.93;61.50
75759;BME280;64371;47.566;19.086;2023-05-07T20:48:48;100795.38;;;13.06;60.96
75759;BME280;64371;47.566;19.086;2023-05-07T20:51:50;100799.25;;;12.90;61.31
75759;BME280;64371;47.566;19.086;2023-05-07T20:54:52;100795.22;;;12.74;61.97
75759;BME280;64371;47.566;19.086;2023-05-07T20:57:55;100783.50;;;12.80;61.57
75759;BME280;64371;47.566;19.086;2023-05-07T21:00:57;100805.69;;;13.07;61.30
75759;BME280;64371;47.566;19.086;2023-05-07T21:04:00;100796.47;;;12.81;61.66
75759;BME280;64371;47.566;19.086;2023-05-07T21:07:02;100798.44;;;12.71;61.95
75759;BME280;64371;47.566;19.086;2023-05-07T21:10:05;100814.19;;;12.81;61.89
75759;BME280;64371;47.566;19.086;2023-05-07T21:13:07;100811.66;;;12.71;63.05
75759;BME280;64371;47.566;19.086;2023-05-07T21:16:09;100807.38;;;12.75;61.76
75759;BME280;64371;47.566;19.086;2023-05-07T21:19:12;100813.75;;;12.74;61.96
75759;BME280;64371;47.566;19.086;2023-05-07T21:22:14;100820.66;;;12.70;61.93
75759;BME280;64371;47.566;19.086;2023-05-07T21:25:16;100824.81;;;12.52;62.83
75759;BME280;64371;47.566;19.086;2023-05-07T21:28:19;100834.25;;;12.58;62.34
75759;BME280;64371;47.566;19.086;2023-05-07T21:31:21;100831.53;;;12.39;62.84
75759;BME280;64371;47.566;19.086;2023-05-07T21:34:24;100829.03;;;12.24;63.48
75759;BME280;64371;47.566;19.086;2023-05-07T21:37:26;100838.13;;;12.42;62.95
75759;BME280;64371;47.566;19.086;2023-05-07T21:40:29;100821.59;;;12.26;63.49
75759;BME280;64371;47.566;19.086;2023-05-07T21:43:31;100829.34;;;12.18;63.93
75759;BME280;64371;47.566;19.086;2023-05-07T21:46:34;100838.25;;;12.27;63.64
75759;BME280;64371;47.566;19.086;2023-05-07T21:49:36;100829.91;;;12.15;63.63
75759;BME280;64371;47.566;19.086;2023-05-07T21:52:38;100827.06;;;12.06;64.29
75759;BME280;64371;47.566;19.086;2023-05-07T21:55:41;100829.81;;;11.91;64.79
75759;BME280;64371;47.566;19.086;2023-05-07T21:58:43;100848.53;;;11.94;64.43
75759;BME280;64371;47.566;19.086;2023-05-07T22:01:45;100859.34;;;12.03;64.77
75759;BME280;64371;47.566;19.086;2023-05-07T22:04:48;100855.19;;;11.87;65.28
75759;BME280;64371;47.566;19.086;2023-05-07T22:07:50;100828.41;;;11.65;65.20
75759;BME280;64371;47.566;19.086;2023-05-07T22:10:53;100864.28;;;11.71;65.75
75759;BME280;64371;47.566;19.086;2023-05-07T22:13:55;100846.41;;;11.53;65.84
75759;BME280;64371;47.566;19.086;2023-05-07T22:16:57;100859.84;;;11.56;65.72
75759;BME280;64371;47.566;19.086;2023-05-07T22:20:00;100874.94;;;11.46;66.27
75759;BME280;64371;47.566;19.086;2023-05-07T22:23:02;100852.31;;;11.34;66.07
75759;BME280;64371;47.566;19.086;2023-05-07T22:26:14;100867.16;;;11.15;67.01
75759;BME280;64371;47.566;19.086;2023-05-07T22:29:16;100873.00;;;10.97;68.25
75759;BME280;64371;47.566;19.086;2023-05-07T22:32:19;100870.16;;;10.89;68.30
75759;BME280;64371;47.566;19.086;2023-05-07T22:35:21;100864.59;;;10.90;68.18
75759;BME280;64371;47.566;19.086;2023-05-07T22:38:23;100850.09;;;10.88;68.51
75759;BME280;64371;47.566;19.086;2023-05-07T22:41:26;100858.81;;;10.78;68.82
75759;BME280;64371;47.566;19.086;2023-05-07T22:44:28;100880.47;;;10.75;69.55
75759;BME280;64371;47.566;19.086;2023-05-07T22:47:31;100876.53;;;10.73;69.53
75759;BME280;64371;47.566;19.086;2023-05-07T22:50:37;100865.47;;;10.45;70.38
75759;BME280;64371;47.566;19.086;2023-05-07T22:53:39;100868.63;;;10.68;69.40
75759;BME280;64371;47.566;19.086;2023-05-07T22:56:42;100878.09;;;10.74;68.77
75759;BME280;64371;47.566;19.086;2023-05-07T22:59:44;100874.66;;;10.73;69.06
75759;BME280;64371;47.566;19.086;2023-05-07T23:02:49;100877.59;;;10.46;69.36
75759;BME280;64371;47.566;19.086;2023-05-07T23:05:52;100877.31;;;10.18;70.45
75759;BME280;64371;47.566;19.086;2023-05-07T23:08:55;100869.94;;;10.10;71.06
75759;BME280;64371;47.566;19.086;2023-05-07T23:11:57;100892.03;;;10.09;70.69
75759;BME280;64371;47.566;19.086;2023-05-07T23:14:59;100878.84;;;9.98;71.07
75759;BME280;64371;47.566;19.086;2023-05-07T23:18:02;100885.72;;;9.99;71.60
75759;BME280;64371;47.566;19.086;2023-05-07T23:21:04;100889.41;;;10.03;71.60
75759;BME280;64371;47.566;19.086;2023-05-07T23:24:08;100873.38;;;10.20;71.14
75759;BME280;64371;47.566;19.086;2023-05-07T23:27:11;100876.81;;;10.36;70.53
75759;BME280;64371;47.566;19.086;2023-05-07T23:30:14;100883.91;;;10.60;69.48
75759;BME280;64371;47.566;19.086;2023-05-07T23:33:16;100880.50;;;10.65;68.83
75759;BME280;64371;47.566;19.086;2023-05-07T23:36:19;100874.13;;;10.66;68.65
75759;BME280;64371;47.566;19.086;2023-05-07T23:39:21;100879.97;;;10.58;68.79
75759;BME280;64371;47.566;19.086;2023-05-07T23:42:24;100884.97;;;10.49;69.43
75759;BME280;64371;47.566;19.086;2023-05-07T23:45:26;100873.09;;;10.37;69.54
75759;BME280;64371;47.566;19.086;2023-05-07T23:48:29;100884.44;;;10.47;70.11
75759;BME280;64371;47.566;19.086;2023-05-07T23:51:31;100875.22;;;10.40;69.74
75759;BME280;64371;47.566;19.086;2023-05-07T23:54:33;100881.81;;;10.47;69.24
75759;BME280;64371;47.566;19.086;2023-05-07T23:57:35;100878.13;;;10.43;68.42
